Time;durP1;ratioP1;P1;durP2;ratioP2;P2;SDS_P1;SDS_P2;PMS_P1;PMS_P2;Temp;Humidity;BMP_temperature;BMP_pressure;BME280_temperature;BME280_humidity;BME280_pressure;Samples;Min_cycle;Max_cycle;Signal;HPM_P1;HPM_P2
2021/07/18 00:01:41;;;;;;;5.80;2.70;;;21.70;92.40;;;;;;4967251;28;20026;-89
2021/07/18 00:04:10;;;;;;;5.82;3.10;;;21.70;92.60;;;;;;4998600;28;20030;-90
2021/07/18 00:06:35;;;;;;;6.20;3.05;;;21.70;92.70;;;;;;4998749;28;20021;-90
2021/07/18 00:09:02;;;;;;;7.18;3.25;;;21.70;92.70;;;;;;4982237;28;20114;-90
2021/07/18 00:11:27;;;;;;;7.07;3.75;;;21.70;92.80;;;;;;4998362;28;20026;-90
2021/07/18 00:13:53;;;;;;;4.35;3.10;;;21.60;92.80;;;;;;4979922;28;20027;-91
2021/07/18 00:16:19;;;;;;;7.47;3.83;;;21.60;92.90;;;;;;4996348;28;20021;-91
2021/07/18 00:18:45;;;;;;;9.95;3.83;;;21.60;92.90;;;;;;4998226;28;20026;-90
2021/07/18 00:21:11;;;;;;;7.05;4.00;;;21.50;93.00;;;;;;4998813;28;20505;-91
2021/07/18 00:23:36;;;;;;;6.70;3.47;;;21.50;93.10;;;;;;4981800;28;20034;-91
2021/07/18 00:26:02;;;;;;;7.25;3.60;;;21.50;93.10;;;;;;4998762;28;20441;-91
2021/07/18 00:28:28;;;;;;;4.75;3.10;;;21.50;93.20;;;;;;5014095;28;20155;-91
2021/07/18 00:30:53;;;;;;;7.43;3.50;;;21.40;93.10;;;;;;4998339;28;20029;-91
2021/07/18 00:33:19;;;;;;;7.40;3.60;;;21.40;93.30;;;;;;4997691;28;20026;-92
2021/07/18 00:35:47;;;;;;;6.32;3.90;;;21.40;93.40;;;;;;4998674;28;20037;-90
2021/07/18 00:38:15;;;;;;;6.50;3.60;;;21.40;93.40;;;;;;4982326;28;20038;-91
2021/07/18 00:40:44;;;;;;;8.68;4.45;;;21.30;93.50;;;;;;4997985;28;20018;-91
2021/07/18 00:43:09;;;;;;;5.57;3.75;;;21.30;93.50;;;;;;4997910;28;20034;-91
2021/07/18 00:45:35;;;;;;;6.80;4.00;;;21.30;93.50;;;;;;4997475;28;20028;-90
2021/07/18 00:48:05;;;;;;;6.45;3.67;;;21.20;93.60;;;;;;4998103;28;20050;-91
2021/07/18 00:50:35;;;;;;;6.22;3.55;;;21.20;93.60;;;;;;4995102;28;20050;-91
2021/07/18 00:53:02;;;;;;;6.50;3.73;;;21.20;93.70;;;;;;4987087;28;20022;-90
2021/07/18 00:55:30;;;;;;;7.18;4.78;;;21.20;93.80;;;;;;5014986;28;20116;-90
2021/07/18 00:57:56;;;;;;;7.25;4.63;;;21.10;93.80;;;;;;5015003;28;20042;-91
2021/07/18 01:00:21;;;;;;;7.68;5.00;;;21.10;93.90;;;;;;4961744;28;20027;-91
2021/07/18 01:02:47;;;;;;;6.70;4.70;;;21.10;93.90;;;;;;4981267;28;20022;-90
2021/07/18 01:05:15;;;;;;;7.13;5.00;;;21.10;93.90;;;;;;4997558;28;20382;-91
2021/07/18 01:07:41;;;;;;;7.53;5.47;;;21.00;94.00;;;;;;4994039;28;20492;-91
2021/07/18 01:10:08;;;;;;;7.30;4.60;;;21.00;94.00;;;;;;4995242;28;20104;-91
2021/07/18 01:12:34;;;;;;;7.10;3.95;;;21.00;94.10;;;;;;4997926;28;20022;-90
2021/07/18 01:15:00;;;;;;;7.97;4.40;;;21.00;94.00;;;;;;4998036;28;20382;-91
2021/07/18 01:17:27;;;;;;;6.68;4.45;;;20.90;93.90;;;;;;4997688;28;20033;-91
2021/07/18 01:19:54;;;;;;;7.05;4.78;;;20.80;93.80;;;;;;5014752;28;20082;-91
2021/07/18 01:22:20;;;;;;;7.55;4.53;;;20.70;93.90;;;;;;4997337;28;20383;-90
2021/07/18 01:24:46;;;;;;;7.40;4.38;;;20.70;94.00;;;;;;4981570;28;20036;-91
2021/07/18 01:27:12;;;;;;;7.85;5.03;;;20.70;94.00;;;;;;4981343;28;20061;-91
2021/07/18 01:29:38;;;;;;;8.73;5.97;;;20.60;94.20;;;;;;4997029;28;20116;-91
2021/07/18 01:32:04;;;;;;;9.68;5.45;;;20.60;94.40;;;;;;4983274;28;20031;-90
2021/07/18 01:34:30;;;;;;;7.65;4.93;;;20.60;94.60;;;;;;4988780;28;20072;-90
2021/07/18 01:36:56;;;;;;;6.88;5.30;;;20.60;94.80;;;;;;4959148;28;20035;-90
2021/07/18 01:39:22;;;;;;;7.85;5.93;;;20.60;95.00;;;;;;5014954;28;20029;-91
2021/07/18 01:41:50;;;;;;;8.57;6.00;;;20.60;95.10;;;;;;4996752;28;20041;-91
2021/07/18 01:44:16;;;;;;;8.38;5.78;;;20.60;95.20;;;;;;4996389;28;20030;-90
2021/07/18 01:46:42;;;;;;;7.72;6.10;;;20.60;95.20;;;;;;4951631;28;20084;-91
2021/07/18 01:49:11;;;;;;;9.13;6.35;;;20.60;95.20;;;;;;4985790;28;20075;-91
2021/07/18 01:51:37;;;;;;;9.27;6.70;;;20.60;95.30;;;;;;4975549;28;20018;-90
2021/07/18 01:54:05;;;;;;;9.07;6.60;;;20.60;95.30;;;;;;4983519;28;20073;-90
2021/07/18 01:56:32;;;;;;;8.43;6.63;;;20.60;95.30;;;;;;4974527;28;20109;-90
2021/07/18 01:58:57;;;;;;;10.52;6.63;;;20.60;95.40;;;;;;4975323;28;20033;-90
2021/07/18 02:01:32;;;;;;;9.55;7.25;;;20.60;95.40;;;;;;4976348;28;20031;-91
2021/07/18 02:03:59;;;;;;;9.75;7.07;;;20.60;95.50;;;;;;4992547;28;20030;-90
2021/07/18 02:06:26;;;;;;;7.68;6.18;;;20.60;95.80;;;;;;4978007;28;20539;-91
2021/07/18 02:08:53;;;;;;;8.20;6.65;;;20.60;95.60;;;;;;4977341;28;20027;-91
2021/07/18 02:11:20;;;;;;;10.35;6.85;;;20.60;95.70;;;;;;4985855;28;20051;-90
2021/07/18 02:13:55;;;;;;;9.60;7.25;;;20.60;95.80;;;;;;4965179;28;20027;-90
2021/07/18 02:16:21;;;;;;;10.15;6.85;;;20.60;95.90;;;;;;4958451;28;20027;-91
2021/07/18 02:18:47;;;;;;;7.45;6.10;;;20.60;95.90;;;;;;4974879;28;20026;-91
2021/07/18 02:21:15;;;;;;;8.93;6.97;;;20.60;95.90;;;;;;4988645;28;20127;-91
2021/07/18 02:23:40;;;;;;;8.95;7.10;;;20.50;96.00;;;;;;4969366;28;20141;-90
2021/07/18 02:26:06;;;;;;;8.50;6.63;;;20.50;96.00;;;;;;4977207;28;20054;-91
2021/07/18 02:28:32;;;;;;;8.93;6.60;;;20.50;96.10;;;;;;4998964;28;20114;-91
2021/07/18 02:30:58;;;;;;;7.65;5.43;;;20.50;96.10;;;;;;4991851;28;20498;-91
2021/07/18 02:33:24;;;;;;;7.40;6.28;;;20.50;96.10;;;;;;4980369;28;20026;-90
2021/07/18 02:35:50;;;;;;;6.88;5.40;;;20.50;96.20;;;;;;4981024;28;20512;-91
2021/07/18 02:38:16;;;;;;;6.93;5.38;;;20.50;96.20;;;;;;5013253;28;20029;-90
2021/07/18 02:40:42;;;;;;;6.88;5.57;;;20.50;96.10;;;;;;5017896;28;20014;-92
2021/07/18 02:43:08;;;;;;;7.63;5.55;;;20.50;96.20;;;;;;5019082;28;20068;-91
2021/07/18 02:45:33;;;;;;;7.35;5.60;;;20.50;96.20;;;;;;5006527;28;20010;-93
2021/07/18 02:47:59;;;;;;;7.60;5.30;;;20.40;96.20;;;;;;4987864;28;20048;-91
2021/07/18 02:50:27;;;;;;;7.40;5.90;;;20.40;96.30;;;;;;5039823;28;20053;-91
2021/07/18 02:52:53;;;;;;;7.60;5.82;;;20.40;96.30;;;;;;5038906;28;20014;-90
2021/07/18 02:55:20;;;;;;;8.88;6.32;;;20.40;96.40;;;;;;5022135;28;20010;-92
2021/07/18 02:57:46;;;;;;;7.97;6.20;;;20.40;96.40;;;;;;5022424;28;20033;-91
2021/07/18 03:00:16;;;;;;;7.97;6.45;;;20.40;96.40;;;;;;4999697;28;20065;-91
2021/07/18 03:02:45;;;;;;;8.65;5.65;;;20.40;96.50;;;;;;5000059;28;20042;-90
2021/07/18 03:05:12;;;;;;;9.68;6.20;;;20.30;96.50;;;;;;4999688;28;20576;-90
2021/07/18 03:07:39;;;;;;;8.20;6.40;;;20.30;96.60;;;;;;4983553;28;20429;-90
2021/07/18 03:10:07;;;;;;;9.88;6.65;;;20.30;96.60;;;;;;4999172;28;20041;-91
2021/07/18 03:12:33;;;;;;;8.07;6.43;;;20.30;96.60;;;;;;4983724;28;20037;-92
2021/07/18 03:15:03;;;;;;;9.05;6.72;;;20.30;96.60;;;;;;4992770;28;20034;-91
2021/07/18 03:17:30;;;;;;;10.60;7.28;;;20.30;96.70;;;;;;4999310;28;20057;-91
2021/07/18 03:20:02;;;;;;;10.35;6.32;;;20.30;96.70;;;;;;5016960;28;20025;-90
2021/07/18 03:22:27;;;;;;;8.05;6.15;;;20.30;96.80;;;;;;4985010;28;20018;-91
2021/07/18 03:24:53;;;;;;;7.75;5.93;;;20.30;96.70;;;;;;5017070;28;20528;-91
2021/07/18 03:27:20;;;;;;;7.75;5.57;;;20.30;96.80;;;;;;4983002;28;20058;-91
2021/07/18 03:29:46;;;;;;;7.90;5.75;;;20.30;96.80;;;;;;4982898;28;20061;-91
2021/07/18 03:32:11;;;;;;;7.97;5.93;;;20.20;97.10;;;;;;4989995;28;20030;-91
2021/07/18 03:34:37;;;;;;;8.27;5.82;;;20.20;96.90;;;;;;5016770;28;20029;-91
2021/07/18 03:37:03;;;;;;;9.07;6.70;;;20.20;96.90;;;;;;4983001;28;20040;-93
2021/07/18 03:39:29;;;;;;;8.57;6.53;;;20.20;97.00;;;;;;4999389;28;20020;-91
2021/07/18 03:41:54;;;;;;;10.32;7.05;;;20.20;97.00;;;;;;4998923;28;20120;-91
2021/07/18 03:44:20;;;;;;;9.82;6.78;;;20.20;97.10;;;;;;4983073;28;20042;-91
2021/07/18 03:46:46;;;;;;;10.38;6.75;;;20.10;97.00;;;;;;4983972;28;20027;-91
2021/07/18 03:49:11;;;;;;;11.63;8.48;;;20.10;97.10;;;;;;4992929;28;20029;-90
2021/07/18 03:51:38;;;;;;;13.77;8.50;;;20.10;97.10;;;;;;4993658;28;20027;-90
2021/07/18 03:54:03;;;;;;;11.82;8.65;;;20.10;97.10;;;;;;4997324;28;20065;-90
2021/07/18 03:56:32;;;;;;;11.27;7.93;;;20.10;97.20;;;;;;4997822;28;20061;-90
2021/07/18 03:58:58;;;;;;;11.23;8.13;;;20.10;97.30;;;;;;4983065;28;20026;-89
2021/07/18 04:01:23;;;;;;;9.27;7.38;;;20.10;97.20;;;;;;4982690;28;20030;-90
2021/07/18 04:03:49;;;;;;;9.27;6.90;;;20.10;97.30;;;;;;4966014;28;20156;-91
2021/07/18 04:06:16;;;;;;;9.82;6.80;;;20.10;97.30;;;;;;4982441;28;20041;-90
2021/07/18 04:08:42;;;;;;;13.43;7.70;;;20.10;97.30;;;;;;4982120;28;20084;-91
2021/07/18 04:11:08;;;;;;;11.52;7.40;;;20.10;97.40;;;;;;4975387;28;20133;-89
2021/07/18 04:13:35;;;;;;;9.48;6.82;;;20.10;97.40;;;;;;4980346;28;20094;-90
2021/07/18 04:16:00;;;;;;;11.20;7.60;;;20.10;97.30;;;;;;5006115;28;20038;-90
2021/07/18 04:18:26;;;;;;;12.25;7.60;;;20.00;97.30;;;;;;5015951;28;20100;-90
2021/07/18 04:20:52;;;;;;;11.25;7.35;;;20.10;97.40;;;;;;4986108;28;20028;-91
2021/07/18 04:23:17;;;;;;;11.73;7.50;;;20.10;97.30;;;;;;4998137;28;20488;-90
2021/07/18 04:25:44;;;;;;;10.85;7.53;;;20.00;97.40;;;;;;4981615;28;20034;-90
2021/07/18 04:28:11;;;;;;;11.95;7.90;;;20.00;97.50;;;;;;4998354;28;20109;-91
2021/07/18 04:30:38;;;;;;;10.73;7.70;;;20.00;97.60;;;;;;4981573;28;20413;-92
2021/07/18 04:33:04;;;;;;;10.57;7.53;;;20.00;97.90;;;;;;4998360;28;20034;-90
2021/07/18 04:35:29;;;;;;;10.00;6.85;;;20.00;97.70;;;;;;4998558;28;20590;-91
2021/07/18 04:37:55;;;;;;;11.65;7.65;;;20.00;97.70;;;;;;4994067;28;20060;-91
2021/07/18 04:40:21;;;;;;;9.95;7.45;;;20.00;97.70;;;;;;5006058;28;20041;-90
2021/07/18 04:42:46;;;;;;;10.52;7.50;;;19.90;97.60;;;;;;5015160;28;20030;-92
2021/07/18 04:45:12;;;;;;;9.90;7.88;;;19.90;97.60;;;;;;4982774;28;20040;-92
2021/07/18 04:47:55;;;;;;;9.88;7.32;;;19.90;97.70;;;;;;4975179;28;20422;-91
2021/07/18 04:50:25;;;;;;;10.45;7.40;;;19.90;97.60;;;;;;4996875;28;20478;-91
2021/07/18 04:52:51;;;;;;;9.07;7.05;;;19.90;97.60;;;;;;4997127;28;20036;-91
2021/07/18 04:55:18;;;;;;;9.38;6.50;;;19.90;97.70;;;;;;4997394;28;20093;-91
2021/07/18 04:57:44;;;;;;;8.27;6.15;;;19.90;97.70;;;;;;5014905;28;20029;-91
2021/07/18 05:00:16;;;;;;;7.97;6.20;;;19.90;97.70;;;;;;4998097;28;20466;-91
2021/07/18 05:02:42;;;;;;;7.68;5.82;;;19.90;97.70;;;;;;4996968;28;20026;-92
2021/07/18 05:05:13;;;;;;;8.73;6.32;;;19.80;97.80;;;;;;4997933;28;20125;-91
2021/07/18 05:07:53;;;;;;;7.75;5.82;;;19.80;97.80;;;;;;4997744;28;20037;-91
2021/07/18 05:10:22;;;;;;;8.32;6.30;;;19.80;97.80;;;;;;4997952;28;20030;-91
2021/07/18 05:12:49;;;;;;;7.32;5.82;;;19.80;97.80;;;;;;4997447;28;20033;-92
2021/07/18 05:15:16;;;;;;;6.75;5.38;;;19.80;97.80;;;;;;4997517;28;20014;-91
2021/07/18 05:17:42;;;;;;;5.82;4.68;;;19.80;97.80;;;;;;4997519;28;20022;-91
2021/07/18 05:20:12;;;;;;;6.53;5.05;;;19.80;97.80;;;;;;4997410;28;20026;-91
2021/07/18 05:22:40;;;;;;;6.07;4.70;;;19.80;97.80;;;;;;4997427;28;20018;-91
2021/07/18 05:25:08;;;;;;;7.60;5.13;;;19.80;97.80;;;;;;4982205;28;20087;-91
2021/07/18 05:27:37;;;;;;;7.13;4.50;;;19.80;97.80;;;;;;4993945;28;20483;-90
2021/07/18 05:30:05;;;;;;;6.20;4.63;;;19.80;97.90;;;;;;4996125;28;20049;-92
2021/07/18 05:32:31;;;;;;;6.47;5.10;;;19.80;97.90;;;;;;4996440;28;20034;-91
2021/07/18 05:34:56;;;;;;;6.55;5.10;;;19.80;97.90;;;;;;4996616;28;20018;-91
2021/07/18 05:37:22;;;;;;;7.07;5.20;;;19.80;98.00;;;;;;4996364;28;20037;-92
2021/07/18 05:39:48;;;;;;;5.50;4.22;;;19.80;97.90;;;;;;4996361;28;20014;-91
2021/07/18 05:42:14;;;;;;;6.00;4.63;;;19.80;97.90;;;;;;5014376;28;20025;-91
2021/07/18 05:44:39;;;;;;;5.35;4.25;;;19.80;98.00;;;;;;4978677;28;20498;-91
2021/07/18 05:47:05;;;;;;;7.47;4.88;;;19.80;98.10;;;;;;4988066;28;20033;-92
2021/07/18 05:49:31;;;;;;;6.10;4.60;;;19.90;98.10;;;;;;5015050;28;20093;-92
2021/07/18 05:51:58;;;;;;;6.80;4.95;;;19.90;98.00;;;;;;4997663;28;20053;-91
2021/07/18 05:54:24;;;;;;;6.13;4.80;;;19.90;98.20;;;;;;4979027;28;20026;-92
2021/07/18 05:56:52;;;;;;;5.95;4.95;;;19.90;98.10;;;;;;4965222;28;20034;-91
2021/07/18 05:59:18;;;;;;;6.25;4.60;;;19.90;98.00;;;;;;4989730;28;20023;-91
2021/07/18 06:01:43;;;;;;;6.05;4.65;;;19.90;98.00;;;;;;4981726;28;20382;-92
2021/07/18 06:04:09;;;;;;;5.88;4.43;;;19.90;98.10;;;;;;4998711;28;20487;-91
2021/07/18 06:06:35;;;;;;;5.30;4.13;;;19.90;98.10;;;;;;4998895;28;20026;-92
2021/07/18 06:09:00;;;;;;;6.22;4.20;;;20.00;98.20;;;;;;4987692;28;20035;-92
2021/07/18 06:11:32;;;;;;;5.88;3.67;;;20.00;98.20;;;;;;4998894;28;20109;-91
2021/07/18 06:13:59;;;;;;;5.10;3.60;;;20.00;98.20;;;;;;4999504;28;20025;-93
2021/07/18 06:16:25;;;;;;;5.60;3.78;;;20.10;98.30;;;;;;5003960;28;20022;-92
2021/07/18 06:18:50;;;;;;;4.55;3.40;;;20.10;98.30;;;;;;4988241;28;20026;-93
2021/07/18 06:21:16;;;;;;;4.88;3.47;;;20.10;98.30;;;;;;4993869;28;20023;-92
2021/07/18 06:23:45;;;;;;;5.25;3.15;;;20.20;98.40;;;;;;5009779;28;20049;-92
2021/07/18 06:26:11;;;;;;;6.13;3.08;;;20.20;98.30;;;;;;5023237;28;20014;-92
2021/07/18 06:28:43;;;;;;;4.20;3.03;;;20.20;98.40;;;;;;5023697;28;20075;-92
2021/07/18 06:31:12;;;;;;;3.97;3.08;;;20.30;98.30;;;;;;5006968;28;20109;-93
2021/07/18 06:33:38;;;;;;;3.40;2.40;;;20.30;98.30;;;;;;5023044;28;20040;-91
2021/07/18 06:36:04;;;;;;;3.95;2.40;;;20.30;98.30;;;;;;5006376;28;20041;-92
2021/07/18 06:38:30;;;;;;;2.70;2.10;;;20.40;98.30;;;;;;5022234;28;20010;-90
2021/07/18 06:40:56;;;;;;;4.05;2.60;;;20.40;98.40;;;;;;5019937;28;20021;-91
2021/07/18 06:43:22;;;;;;;3.17;2.15;;;20.50;98.40;;;;;;5001635;28;20053;-91
2021/07/18 06:45:48;;;;;;;3.50;2.20;;;20.50;98.40;;;;;;5000462;28;20029;-92
2021/07/18 06:48:14;;;;;;;2.28;2.05;;;20.60;98.40;;;;;;4969002;28;20145;-92
2021/07/18 06:50:45;;;;;;;2.55;2.03;;;20.60;98.30;;;;;;5000064;28;20029;-91
2021/07/18 06:53:10;;;;;;;5.03;2.85;;;20.70;98.30;;;;;;5000233;28;20038;-91
2021/07/18 06:55:36;;;;;;;3.70;2.90;;;20.70;98.30;;;;;;4999816;28;20076;-91
2021/07/18 06:58:02;;;;;;;4.20;2.80;;;20.80;98.30;;;;;;4999994;28;20030;-91
2021/07/18 07:00:28;;;;;;;3.95;2.90;;;20.80;98.30;;;;;;4983869;28;20133;-91
2021/07/18 07:02:56;;;;;;;4.78;2.45;;;20.90;98.30;;;;;;5000569;28;20105;-90
2021/07/18 07:05:40;;;;;;;3.90;2.47;;;20.90;98.20;;;;;;4999972;28;20061;-92
2021/07/18 07:08:06;;;;;;;3.63;2.20;;;21.00;98.20;;;;;;4999286;28;20030;-92
2021/07/18 07:10:32;;;;;;;2.97;2.00;;;21.10;98.20;;;;;;4998446;28;20464;-91
2021/07/18 07:12:57;;;;;;;3.63;2.20;;;21.10;98.10;;;;;;4999238;28;20124;-91
2021/07/18 07:15:24;;;;;;;2.65;1.80;;;21.20;98.00;;;;;;4999708;28;20022;-91
2021/07/18 07:17:50;;;;;;;2.65;2.00;;;21.20;98.00;;;;;;4983408;28;20080;-91
2021/07/18 07:20:16;;;;;;;2.40;1.80;;;21.30;98.00;;;;;;4999930;28;20057;-92
2021/07/18 07:22:42;;;;;;;3.20;1.98;;;21.40;98.00;;;;;;4983433;28;20030;-91
2021/07/18 07:25:13;;;;;;;2.55;1.90;;;21.40;97.90;;;;;;4999627;28;20030;-91
2021/07/18 07:27:39;;;;;;;;;;;21.50;97.80;;;;;;5000321;28;20018;-91
2021/07/18 07:30:09;;;;;;;2.00;1.50;;;21.60;97.50;;;;;;4999317;28;19940;-91
2021/07/18 07:32:35;;;;;;;2.67;1.58;;;21.60;97.60;;;;;;4983748;28;20030;-91
2021/07/18 07:35:04;;;;;;;2.72;1.70;;;21.70;97.70;;;;;;4998981;28;20029;-91
2021/07/18 07:37:29;;;;;;;2.08;1.50;;;21.80;97.60;;;;;;5016428;28;20018;-91
2021/07/18 07:39:55;;;;;;;2.25;1.60;;;21.80;97.50;;;;;;4998732;28;20034;-91
2021/07/18 07:42:27;;;;;;;2.30;1.75;;;21.90;97.50;;;;;;4999897;28;20033;-92
2021/07/18 07:44:55;;;;;;;2.75;1.70;;;22.00;97.40;;;;;;4999673;28;20022;-91
2021/07/18 07:47:21;;;;;;;2.25;1.40;;;22.10;97.50;;;;;;4999304;28;20026;-92
2021/07/18 07:49:47;;;;;;;3.13;1.83;;;22.20;97.40;;;;;;4999962;28;20033;-92
2021/07/18 07:52:13;;;;;;;2.00;1.45;;;22.30;97.10;;;;;;4992538;28;20034;-91
2021/07/18 07:54:39;;;;;;;2.28;1.60;;;22.40;97.00;;;;;;4967263;28;20033;-92
2021/07/18 07:57:06;;;;;;;2.92;1.80;;;22.50;96.90;;;;;;4978162;28;20038;-91
2021/07/18 07:59:32;;;;;;;2.75;1.70;;;22.50;96.80;;;;;;4998872;28;20037;-91
2021/07/18 08:01:58;;;;;;;2.97;1.77;;;22.60;96.70;;;;;;4998906;28;20026;-92
2021/07/18 08:04:25;;;;;;;1.55;1.35;;;22.70;96.50;;;;;;4998947;28;20049;-92
2021/07/18 08:06:53;;;;;;;4.32;1.73;;;22.80;96.30;;;;;;4982704;28;20033;-92
2021/07/18 08:09:19;;;;;;;1.75;1.50;;;22.80;96.30;;;;;;4997755;28;20030;-91
2021/07/18 08:11:45;;;;;;;2.90;1.80;;;22.90;96.30;;;;;;4998397;28;20425;-92
2021/07/18 08:14:11;;;;;;;3.85;1.98;;;23.00;96.10;;;;;;4997791;28;20034;-92
2021/07/18 08:16:36;;;;;;;4.35;2.00;;;23.10;95.70;;;;;;4980778;28;20044;-85
2021/07/18 08:19:02;;;;;;;3.03;1.90;;;23.20;95.70;;;;;;4977670;28;20643;-86
2021/07/18 08:21:28;;;;;;;2.38;1.85;;;23.30;95.70;;;;;;4994048;28;20188;-85
2021/07/18 08:24:03;;;;;;;4.70;2.00;;;23.40;95.60;;;;;;4995425;28;20025;-84
2021/07/18 08:26:29;;;;;;;3.85;2.22;;;23.50;95.40;;;;;;4963687;28;20034;-82
2021/07/18 08:28:54;;;;;;;2.50;1.50;;;23.60;95.40;;;;;;4963858;28;20032;-85
2021/07/18 08:31:20;;;;;;;2.97;1.80;;;23.70;95.40;;;;;;4976622;28;20058;-85
2021/07/18 08:33:45;;;;;;;3.80;1.85;;;23.80;95.30;;;;;;4979023;28;20059;-85
2021/07/18 08:36:12;;;;;;;2.58;2.05;;;23.80;95.40;;;;;;4979047;28;20034;-86
2021/07/18 08:38:38;;;;;;;3.58;2.00;;;23.90;95.00;;;;;;4978297;28;20029;-86
2021/07/18 08:41:08;;;;;;;4.68;2.00;;;24.00;94.90;;;;;;4987777;28;20493;-88
2021/07/18 08:43:36;;;;;;;3.28;1.77;;;24.10;94.60;;;;;;4994977;28;20034;-85
2021/07/18 08:46:03;;;;;;;2.75;1.80;;;24.20;94.50;;;;;;4980245;28;20080;-85
2021/07/18 08:48:30;;;;;;;3.47;2.03;;;24.20;94.40;;;;;;4993939;28;20052;-87
2021/07/18 08:50:55;;;;;;;2.85;1.77;;;24.30;94.10;;;;;;4987246;28;20044;-85
2021/07/18 08:53:25;;;;;;;3.85;1.90;;;24.40;94.00;;;;;;4990221;28;20390;-85
2021/07/18 08:55:51;;;;;;;4.20;2.05;;;24.50;94.00;;;;;;4983896;28;20367;-85
2021/07/18 08:58:17;;;;;;;3.08;1.90;;;24.50;94.00;;;;;;4995124;28;20109;-85
2021/07/18 09:00:43;;;;;;;3.53;1.92;;;24.60;93.80;;;;;;4978933;28;20026;-85
2021/07/18 09:03:15;;;;;;;4.53;2.17;;;24.70;93.50;;;;;;4995094;28;20453;-86
2021/07/18 09:05:41;;;;;;;3.63;1.90;;;24.80;93.40;;;;;;4995556;28;20065;-85
2021/07/18 09:08:20;;;;;;;4.25;2.28;;;24.90;93.20;;;;;;4995173;28;20436;-86
2021/07/18 09:10:53;;;;;;;2.40;1.88;;;24.90;92.80;;;;;;4995165;28;20026;-86
2021/07/18 09:13:19;;;;;;;3.53;2.28;;;25.10;93.10;;;;;;4994813;28;20034;-84
2021/07/18 09:15:53;;;;;;;3.40;1.88;;;25.10;93.00;;;;;;4978591;28;20149;-82
2021/07/18 09:18:24;;;;;;;3.85;1.95;;;25.20;92.80;;;;;;4984134;28;20018;-83
2021/07/18 09:20:53;;;;;;;3.78;2.10;;;25.30;92.80;;;;;;4992762;28;20129;-82
2021/07/18 09:23:28;;;;;;;4.95;2.17;;;25.40;92.60;;;;;;5002138;28;20026;-92
2021/07/18 09:26:22;;;;;;;3.88;1.80;;;25.40;92.30;;;;;;4985560;28;20042;-95
2021/07/18 09:28:49;;;;;;;3.05;1.90;;;25.50;92.20;;;;;;4986345;28;20025;-96
2021/07/18 09:31:37;;;;;;;2.78;1.83;;;25.60;92.30;;;;;;4996063;28;20048;-95
2021/07/18 09:34:19;;;;;;;2.58;1.77;;;25.60;92.20;;;;;;4988997;28;20066;-92
2021/07/18 09:36:53;;;;;;;2.20;1.60;;;25.70;92.00;;;;;;4997055;28;20038;-92
2021/07/18 09:39:21;;;;;;;4.32;1.85;;;25.80;92.10;;;;;;4998785;28;20022;-93
2021/07/18 09:41:47;;;;;;;2.63;1.55;;;25.80;91.60;;;;;;4976117;28;20073;-93
2021/07/18 09:44:18;;;;;;;2.85;1.73;;;25.90;91.60;;;;;;4988373;28;20037;-93
2021/07/18 09:46:47;;;;;;;2.95;1.70;;;26.00;91.60;;;;;;4988944;28;20100;-93
2021/07/18 09:49:31;;;;;;;3.35;1.55;;;26.00;91.50;;;;;;4999214;28;20085;-94
2021/07/18 09:52:26;;;;;;;2.47;1.58;;;26.10;91.30;;;;;;5015904;28;20034;-94
2021/07/18 09:54:56;;;;;;;2.47;1.77;;;26.20;91.10;;;;;;4998388;28;20033;-94
2021/07/18 09:57:30;;;;;;;3.50;1.77;;;26.20;91.00;;;;;;5001882;28;20014;-94
2021/07/18 09:59:56;;;;;;;3.83;2.15;;;26.30;90.80;;;;;;5002050;28;20457;-94
2021/07/18 10:02:31;;;;;;;2.40;1.70;;;26.30;90.80;;;;;;4999511;28;20490;-95
2021/07/18 10:04:57;;;;;;;2.10;1.42;;;26.40;90.80;;;;;;5000833;28;20022;-92
2021/07/18 10:07:32;;;;;;;2.05;1.67;;;26.50;90.70;;;;;;5017608;28;20010;-92
2021/07/18 10:09:59;;;;;;;2.72;1.65;;;26.50;90.60;;;;;;5021806;28;20041;-92
2021/07/18 10:12:25;;;;;;;2.25;1.58;;;26.60;90.70;;;;;;5019631;28;20033;-91
2021/07/18 10:14:53;;;;;;;2.25;1.70;;;26.70;90.50;;;;;;5021265;28;20003;-92
2021/07/18 10:17:21;;;;;;;2.35;1.60;;;26.70;90.40;;;;;;5021663;28;20046;-90
2021/07/18 10:19:47;;;;;;;2.05;1.55;;;26.80;90.30;;;;;;5018675;28;20074;-91
2021/07/18 10:22:45;;;;;;;2.22;1.55;;;26.80;90.30;;;;;;5033187;28;20454;-93
2021/07/18 10:25:15;;;;;;;2.88;1.75;;;26.90;88.10;;;;;;5018255;28;20058;-93
2021/07/18 10:27:44;;;;;;;3.42;1.80;;;27.00;89.30;;;;;;5001839;28;20018;-92
2021/07/18 10:30:12;;;;;;;2.40;1.60;;;27.00;88.90;;;;;;4999819;28;20029;-93
2021/07/18 10:32:44;;;;;;;1.75;1.60;;;27.10;88.80;;;;;;4981747;28;20332;-92
2021/07/18 10:35:11;;;;;;;2.88;1.60;;;27.10;88.50;;;;;;5001276;28;20041;-91
2021/07/18 10:37:42;;;;;;;3.90;1.92;;;27.20;88.00;;;;;;5000769;28;20101;-93
2021/07/18 10:40:14;;;;;;;3.35;1.90;;;27.20;86.40;;;;;;5002685;28;20054;-95
2021/07/18 10:42:42;;;;;;;2.25;1.75;;;27.30;85.60;;;;;;4996043;28;20026;-94
2021/07/18 10:45:51;;;;;;;2.22;1.75;;;27.30;86.40;;;;;;5003499;28;20049;-95
2021/07/18 10:48:47;;;;;;;2.72;1.73;;;27.40;85.00;;;;;;4993109;28;20045;-93
2021/07/18 10:51:15;;;;;;;1.75;1.58;;;27.40;85.60;;;;;;4996757;28;20045;-95
2021/07/18 10:53:41;;;;;;;2.10;1.50;;;27.40;84.70;;;;;;5002309;28;20038;-96
2021/07/18 10:56:07;;;;;;;3.63;2.00;;;27.50;84.50;;;;;;5000929;28;20489;-94
2021/07/18 10:58:39;;;;;;;2.15;1.55;;;27.60;84.00;;;;;;5000801;28;20022;-93
2021/07/18 11:01:21;;;;;;;2.65;1.92;;;27.60;83.20;;;;;;4995093;28;20026;-95
2021/07/18 11:03:48;;;;;;;2.58;2.10;;;27.70;83.00;;;;;;5002514;28;20054;-95
2021/07/18 11:06:45;;;;;;;1.73;1.60;;;27.70;83.50;;;;;;5003651;28;20025;-96
2021/07/18 11:09:22;;;;;;;3.30;2.00;;;27.80;84.20;;;;;;5001231;28;20124;-94
2021/07/18 11:11:58;;;;;;;2.33;1.88;;;27.90;84.60;;;;;;5000455;28;20102;-94
2021/07/18 11:14:34;;;;;;;3.20;1.88;;;27.90;83.40;;;;;;4999266;28;20517;-94
2021/07/18 11:17:04;;;;;;;3.03;2.13;;;28.00;83.00;;;;;;5005531;28;20544;-96
2021/07/18 11:19:39;;;;;;;;;;;28.00;82.80;;;;;;4984756;28;20030;-94
2021/07/18 11:22:06;;;;;;;2.90;1.98;;;28.10;83.20;;;;;;5007177;28;19909;-94
2021/07/18 11:24:55;;;;;;;2.97;1.80;;;28.10;83.00;;;;;;5001941;28;20033;-95
2021/07/18 11:27:22;;;;;;;2.72;2.00;;;28.20;83.40;;;;;;4989978;28;20030;-94
2021/07/18 11:29:48;;;;;;;3.33;1.92;;;28.20;83.30;;;;;;4996702;28;20029;-93
2021/07/18 11:32:30;;;;;;;3.50;2.20;;;28.30;83.10;;;;;;5016727;28;20124;-92
2021/07/18 11:34:57;;;;;;;3.50;1.90;;;28.30;82.20;;;;;;4994869;28;20018;-92
2021/07/18 11:37:25;;;;;;;3.35;2.10;;;28.40;82.60;;;;;;5000658;28;20079;-94
2021/07/18 11:40:00;;;;;;;3.08;2.20;;;28.40;82.50;;;;;;4988861;28;20028;-93
2021/07/18 11:42:27;;;;;;;2.60;2.05;;;28.50;81.60;;;;;;4997638;28;20026;-93
2021/07/18 11:44:53;;;;;;;3.65;2.10;;;28.50;81.40;;;;;;4988465;28;20038;-94
2021/07/18 11:47:34;;;;;;;2.70;2.05;;;28.60;81.90;;;;;;4999160;28;20022;-92
2021/07/18 11:50:00;;;;;;;5.10;2.47;;;28.70;82.10;;;;;;4983566;28;20030;-95
2021/07/18 11:53:04;;;;;;;3.28;2.40;;;28.70;81.60;;;;;;5009829;28;20028;-95
2021/07/18 11:55:39;;;;;;;;;;;;;;;;;;;;;
2021/07/18 11:58:06;;;;;;;14.13;11.60;;;28.90;82.00;;;;;;5020932;28;20105;-96
2021/07/18 12:00:37;;;;;;;8.40;6.72;;;28.90;81.90;;;;;;4996808;28;20042;-95
2021/07/18 12:03:04;;;;;;;7.35;4.45;;;29.00;81.60;;;;;;5001176;28;20030;-94
2021/07/18 12:05:33;;;;;;;7.30;5.20;;;29.00;81.30;;;;;;5018044;28;20470;-95
2021/07/18 12:08:08;;;;;;;34.20;26.88;;;29.10;81.40;;;;;;5002162;28;20049;-96
2021/07/18 12:10:34;;;;;;;21.95;17.33;;;29.20;81.00;;;;;;5001355;28;20030;-95
2021/07/18 12:13:06;;;;;;;14.75;11.45;;;29.20;81.40;;;;;;5000657;28;20057;-96
2021/07/18 12:15:58;;;;;;;9.90;7.90;;;29.30;80.50;;;;;;4998279;28;20018;-96
2021/07/18 12:18:31;;;;;;;4.93;3.92;;;29.30;81.20;;;;;;5004061;28;20037;-95
2021/07/18 12:21:27;;;;;;;4.53;3.33;;;29.30;80.40;;;;;;4994838;28;20030;-96
2021/07/18 12:24:21;;;;;;;3.58;2.80;;;29.40;79.50;;;;;;5030808;23;20064;-84
2021/07/18 12:26:51;;;;;;;4.57;2.70;;;29.40;79.80;;;;;;5035700;28;20070;-86
2021/07/18 12:29:17;;;;;;;4.03;2.33;;;29.50;79.20;;;;;;5036924;28;20136;-86
2021/07/18 12:31:45;;;;;;;5.65;2.55;;;29.50;78.90;;;;;;5052981;28;20103;-86
2021/07/18 12:34:11;;;;;;;2.28;2.05;;;29.60;78.40;;;;;;5030181;28;20108;-86
2021/07/18 12:36:59;;;;;;;4.80;2.42;;;29.60;78.50;;;;;;5028114;28;20037;-86
2021/07/18 12:39:33;;;;;;;3.40;2.53;;;29.60;77.70;;;;;;5021467;28;20482;-86
2021/07/18 12:42:01;;;;;;;4.57;2.58;;;29.60;77.50;;;;;;5055095;28;20614;-86
2021/07/18 12:44:30;;;;;;;5.43;3.03;;;29.60;77.50;;;;;;5006825;28;20124;-85
2021/07/18 12:47:15;;;;;;;2.58;2.38;;;29.70;77.30;;;;;;5023414;28;20033;-86
2021/07/18 12:49:41;;;;;;;4.88;2.60;;;29.70;77.20;;;;;;5032485;28;20020;-86
2021/07/18 12:52:07;;;;;;;5.38;2.97;;;29.70;77.60;;;;;;5027570;28;20017;-86
2021/07/18 12:54:33;;;;;;;3.10;2.53;;;29.80;77.30;;;;;;5012584;28;20021;-85
2021/07/18 12:56:59;;;;;;;3.30;2.50;;;29.90;77.50;;;;;;5033343;28;20037;-86